Entiat, WA (98822)

12:16 AM PST on December 19, 2014 (GMT -0800)
HADS ROARING CREEK NEAR MOUTH NEAR EN WA US WADOECO | Change Station
CLOSE
Current Station
Personal Weather Station
Location: Entiat, WA
Elevation: 1259 ft
Nearby Weather Stations
Active Advisory: Air Stagnation Advisory

Elev 1259 ft 47.69 °N, 120.34 °W | Updated 1 hour ago

Overcast
Overcast
34 °F
Feels Like 34 °F
N
Wind Variable Wind from North
Gusts 0.0 mph

Today
High -- | Low -- °F
--% Chance of Precip.
Yesterday
High -- | Low -- °F
Precip. -- in
7:45 AM 4:10 PM
Waning Crescent, 9% visible
Pressure 29.90 in
Visibility 8.0 miles
Clouds Overcast 800 ft
Windchill 34 °F
Dew Point Not available.
Humidity Not available.
Rainfall -999.00 in
Snow Depth Not available.
UV 0 out of 12
Pollen .50 out of 12
Air Quality Not available.
Flu Activity Not available.
METAR KEAT 190755Z AUTO 00000KT 8SM OVC008 03/02 A2987 RMK AO2 RAB06E29 SLP124 P0000 T00280017 400440022

More Conditions Fewer Conditions

Pressure 29.90 in
Visibility 8.0 miles
Clouds Overcast 800 ft
Windchill 34 °F
Dew Point Not available.
Humidity Not available.
Rainfall -999.00 in
Snow Depth Not available.
UV 0 out of 12
Pollen .50 out of 12
Air Quality Not available.
Flu Activity Not available.
METAR KEAT 190755Z AUTO 00000KT 8SM OVC008 03/02 A2987 RMK AO2 RAB06E29 SLP124 P0000 T00280017 400440022

More Conditions Fewer Conditions

10-Day Weather Forecast

Almanac

Astronomy

Dec. 19, 2014 Rise Set
Actual Time
Civil Twilight
Nautical Twilight
Astronomical Twilight
Moon
Length of Visible Light
Length of Day
Tomorrow will be .
, % of the Moon is Illuminated

Today's Extremes

State Highs State Lows

Community

WunderPhotos

Upload Photos

1,778,953 photos uploaded!

WunderBlogs® & News

Nearby

Air Quality

  Air Quality AQ Index Pollutant
Not available.

Snow Depth

Station Depth Elevation

Earthquake Activity

City Distance Mag. Time & Date
Minimum magnitude displayed is 2.5.

Coastal Water Temperatures

Place Temperature

Nearby Weather Stations